Time;durP1;ratioP1;P1;durP2;ratioP2;P2;SDS_P1;SDS_P2;PMS_P1;PMS_P2;Temp;Humidity;BMP_temperature;BMP_pressure;BME280_temperature;BME280_humidity;BME280_pressure;Samples;Min_cycle;Max_cycle;Signal;HPM_P1;HPM_P2
2021/05/17 00:01:07;;;;;;;;;;;;;;;23.63;47.81;99477.50;1736441;82;20610;-77
2021/05/17 00:03:33;;;;;;;;;;;;;;;23.60;47.83;99465.72;1736708;82;20209;-77
2021/05/17 00:05:59;;;;;;;;;;;;;;;23.54;47.69;99465.44;1736749;82;20547;-77
2021/05/17 00:08:26;;;;;;;;;;;;;;;23.54;47.48;99474.45;1736687;80;20186;-76
2021/05/17 00:10:54;;;;;;;;;;;;;;;23.51;48.14;99480.45;1736823;82;20198;-76
2021/05/17 00:13:20;;;;;;;;;;;;;;;23.48;48.26;99502.02;1736542;82;20594;-76
2021/05/17 00:15:48;;;;;;;;;;;;;;;23.43;48.30;99515.66;1736621;82;20443;-77
2021/05/17 00:18:14;;;;;;;;;;;;;;;23.40;48.45;99524.41;1736637;82;20252;-76
2021/05/17 00:20:42;;;;;;;;;;;;;;;23.39;48.42;99516.77;1736451;80;20298;-76
2021/05/17 00:23:10;;;;;;;;;;;;;;;23.39;48.44;99522.74;1736606;82;20266;-77
2021/05/17 00:25:38;;;;;;;;;;;;;;;23.38;48.37;99534.77;1736271;82;20262;-76
2021/05/17 00:28:05;;;;;;;;;;;;;;;23.39;48.15;99543.23;1736223;82;20218;-76
2021/05/17 00:30:31;;;;;;;;;;;;;;;23.43;48.02;99544.36;1736368;82;20298;-77
2021/05/17 00:32:58;;;;;;;;;;;;;;;23.47;47.99;99546.30;1736579;82;20245;-76
2021/05/17 00:35:25;;;;;;;;;;;;;;;23.52;47.95;99541.40;1736286;82;20217;-77
2021/05/17 00:37:51;;;;;;;;;;;;;;;23.55;47.85;99535.41;1737512;82;20250;-77
2021/05/17 00:40:18;;;;;;;;;;;;;;;23.53;47.79;99554.00;1737901;82;20202;-77
2021/05/17 00:42:45;;;;;;;;;;;;;;;23.56;47.47;99575.32;1737174;82;20222;-77
2021/05/17 00:45:13;;;;;;;;;;;;;;;23.55;47.71;99588.17;1736869;82;20274;-77
2021/05/17 00:47:48;;;;;;;;;;;;;;;23.54;47.68;99596.64;1736422;82;20630;-77
2021/05/17 00:50:17;;;;;;;;;;;;;;;23.52;47.67;99599.63;1736375;82;20249;-77
2021/05/17 00:52:45;;;;;;;;;;;;;;;23.51;47.81;99631.33;1736336;80;20202;-76
2021/05/17 00:55:12;;;;;;;;;;;;;;;23.49;48.15;99640.34;1736169;82;20593;-77
2021/05/17 00:57:38;;;;;;;;;;;;;;;23.45;48.22;99636.49;1736060;82;20298;-76
2021/05/17 01:00:07;;;;;;;;;;;;;;;23.39;48.36;99632.05;1736288;82;20198;-76
2021/05/17 01:02:35;;;;;;;;;;;;;;;23.44;48.40;99643.05;1735971;82;20294;-77
2021/05/17 01:05:05;;;;;;;;;;;;;;;23.44;48.37;99638.95;1734093;82;20214;-76
2021/05/17 01:07:32;;;;;;;;;;;;;;;23.47;48.27;99631.57;1736069;80;20226;-76
2021/05/17 01:09:59;;;;;;;;;;;;;;;23.49;48.12;99614.38;1736285;82;20276;-76
2021/05/17 01:12:27;;;;;;;;;;;;;;;23.47;48.09;99561.33;1736295;82;20190;-76
2021/05/17 01:14:58;;;;;;;;;;;;;;;23.48;48.03;99537.55;1736307;82;20618;-76
2021/05/17 01:17:25;;;;;;;;;;;;;;;23.49;47.98;99555.62;1669784;84;20546;-76
2021/05/17 01:19:59;;;;;;;;;;;;;;;23.47;48.17;99600.14;1707916;83;20221;-76
2021/05/17 01:22:34;;;;;;;;;;;;;;;23.43;48.37;99624.98;1708950;84;20151;-77
2021/05/17 01:24:56;;;;;;;;;;;;;;;23.41;48.57;99625.80;1708542;82;20191;-77
2021/05/17 01:27:22;;;;;;;;;;;;;;;23.38;48.71;99652.28;1708101;84;20199;-77
2021/05/17 01:29:48;;;;;;;;;;;;;;;23.38;48.79;99620.30;1708197;84;20226;-77
2021/05/17 01:32:16;;;;;;;;;;;;;;;23.37;48.84;99603.63;1708042;84;20247;-77
2021/05/17 01:34:42;;;;;;;;;;;;;;;23.36;48.95;99608.01;1736313;82;20170;-77
2021/05/17 01:37:08;;;;;;;;;;;;;;;23.29;49.14;99569.96;1736330;82;20198;-77
2021/05/17 01:39:36;;;;;;;;;;;;;;;23.32;49.14;99601.42;1736236;82;20238;-76
2021/05/17 01:42:04;;;;;;;;;;;;;;;23.28;49.02;99633.36;1736243;82;20269;-76
2021/05/17 01:44:30;;;;;;;;;;;;;;;23.25;48.88;99633.05;1736068;82;20578;-76
2021/05/17 01:46:59;;;;;;;;;;;;;;;23.23;48.92;99637.97;1705107;82;20266;-77
2021/05/17 01:49:26;;;;;;;;;;;;;;;23.18;49.19;99565.53;1736235;82;20269;-76
2021/05/17 01:51:52;;;;;;;;;;;;;;;23.16;49.39;99407.33;1736233;82;20274;-77
2021/05/17 01:54:19;;;;;;;;;;;;;;;23.11;49.50;99318.53;1736164;82;20264;-77
2021/05/17 01:56:47;;;;;;;;;;;;;;;23.02;49.75;99231.38;1701034;84;20575;-76
2021/05/17 01:59:18;;;;;;;;;;;;;;;22.93;49.72;99198.86;1656469;84;20533;-77
2021/05/17 02:01:45;;;;;;;;;;;;;;;22.85;49.65;99271.73;1700453;84;20183;-77
2021/05/17 02:04:11;;;;;;;;;;;;;;;22.81;49.67;99282.91;1708231;83;20513;-77
2021/05/17 02:06:37;;;;;;;;;;;;;;;22.81;49.87;99318.41;1708296;84;20166;-77
2021/05/17 02:09:05;;;;;;;;;;;;;;;22.84;50.09;99373.28;1736190;82;20197;-77
2021/05/17 02:11:31;;;;;;;;;;;;;;;22.86;50.26;99398.97;1736241;82;20186;-76
2021/05/17 02:14:02;;;;;;;;;;;;;;;22.87;50.24;99401.42;1734821;82;20297;-76
2021/05/17 02:16:29;;;;;;;;;;;;;;;22.88;50.31;99380.40;1736489;82;20230;-76
2021/05/17 02:18:55;;;;;;;;;;;;;;;22.90;50.29;99365.44;1736402;82;20189;-77
2021/05/17 02:21:21;;;;;;;;;;;;;;;22.94;50.15;99357.55;1736084;82;20266;-77
2021/05/17 02:23:48;;;;;;;;;;;;;;;22.94;50.02;99358.36;1736296;82;20257;-77
2021/05/17 02:26:14;;;;;;;;;;;;;;;22.96;50.00;99343.89;1669346;84;20222;-77
2021/05/17 02:28:42;;;;;;;;;;;;;;;22.97;49.80;99338.70;1686829;84;20571;-77
2021/05/17 02:31:09;;;;;;;;;;;;;;;22.97;49.73;99331.05;1735290;82;20587;-77
2021/05/17 02:33:36;;;;;;;;;;;;;;;22.95;49.83;99326.41;1735011;82;20297;-78
2021/05/17 02:36:04;;;;;;;;;;;;;;;22.93;49.79;99325.84;1736389;82;20238;-77
2021/05/17 02:38:30;;;;;;;;;;;;;;;22.91;49.68;99306.19;1737099;82;20222;-77
2021/05/17 02:40:57;;;;;;;;;;;;;;;22.87;49.75;99288.66;1671064;84;20206;-78
2021/05/17 02:43:24;;;;;;;;;;;;;;;22.87;49.67;99282.66;1677920;84;20199;-78
2021/05/17 02:45:54;;;;;;;;;;;;;;;22.88;49.59;99260.26;1708077;84;20195;-77
2021/05/17 02:48:28;;;;;;;;;;;;;;;22.88;49.57;99254.80;1736335;82;20598;-77
2021/05/17 02:50:50;;;;;;;;;;;;;;;22.88;49.54;99265.72;1735742;82;20258;-77
2021/05/17 02:53:25;;;;;;;;;;;;;;;22.89;49.42;99259.16;1736681;82;20606;-78
2021/05/17 02:55:58;;;;;;;;;;;;;;;22.88;49.32;99250.16;1735626;82;20289;-78
2021/05/17 02:58:28;;;;;;;;;;;;;;;22.84;49.22;99250.41;1736545;82;20539;-78
2021/05/17 03:01:08;;;;;;;;;;;;;;;22.84;49.20;99258.60;1736515;82;20245;-78
2021/05/17 03:03:48;;;;;;;;;;;;;;;22.84;49.22;99240.86;1736318;82;20237;-77
2021/05/17 03:06:25;;;;;;;;;;;;;;;22.83;49.28;99243.87;1736367;82;20202;-77
2021/05/17 03:08:57;;;;;;;;;;;;;;;22.82;49.34;99247.69;1736228;82;20222;-77
2021/05/17 03:11:25;;;;;;;;;;;;;;;22.84;49.38;99253.69;1736208;82;20268;-77
2021/05/17 03:13:53;;;;;;;;;;;;;;;22.84;49.37;99257.78;1736409;80;20615;-77
2021/05/17 03:16:21;;;;;;;;;;;;;;;22.84;49.44;99259.97;1747492;82;20554;-77
2021/05/17 03:18:49;;;;;;;;;;;;;;;22.82;49.47;99256.70;1751216;81;20607;-77
2021/05/17 03:21:16;;;;;;;;;;;;;;;22.76;49.61;99261.33;1750386;81;20241;-77
2021/05/17 03:23:42;;;;;;;;;;;;;;;22.73;49.68;99272.77;1671523;84;20281;-77
2021/05/17 03:26:09;;;;;;;;;;;;;;;22.73;49.91;99282.33;1701851;84;20224;-77
2021/05/17 03:28:36;;;;;;;;;;;;;;;22.74;50.05;99284.51;1701826;83;20352;-77
2021/05/17 03:31:02;;;;;;;;;;;;;;;22.72;50.22;99277.96;1701658;84;20205;-77
2021/05/17 03:33:28;;;;;;;;;;;;;;;22.73;50.18;99275.50;1701510;83;20577;-78
2021/05/17 03:35:54;;;;;;;;;;;;;;;22.75;50.23;99277.41;1701392;83;20200;-77
2021/05/17 03:38:20;;;;;;;;;;;;;;;22.75;50.21;99269.77;1701592;83;20221;-77
2021/05/17 03:40:46;;;;;;;;;;;;;;;22.74;50.22;99264.03;1702257;84;20273;-77
2021/05/17 03:43:12;;;;;;;;;;;;;;;22.71;50.35;99267.28;1702023;84;20205;-77
2021/05/17 03:45:38;;;;;;;;;;;;;;;22.70;50.36;99273.30;1701531;82;20539;-76
2021/05/17 03:48:05;;;;;;;;;;;;;;;22.72;50.44;99267.04;1703212;83;20191;-76
2021/05/17 03:50:31;;;;;;;;;;;;;;;22.71;50.47;99266.77;1703606;84;20552;-76
2021/05/17 03:52:56;;;;;;;;;;;;;;;22.71;50.44;99266.77;1704399;82;20167;-76
2021/05/17 03:55:22;;;;;;;;;;;;;;;22.72;50.55;99285.33;1703900;83;20281;-77
2021/05/17 03:57:48;;;;;;;;;;;;;;;22.73;50.61;99302.80;1704906;84;20268;-76
2021/05/17 04:00:17;;;;;;;;;;;;;;;22.74;50.60;99309.08;1704784;84;20165;-77
2021/05/17 04:02:45;;;;;;;;;;;;;;;22.75;50.73;99297.88;1674254;85;20543;-76
2021/05/17 04:05:31;;;;;;;;;;;;;;;22.79;50.81;99290.80;1692783;84;20274;-76
2021/05/17 04:08:05;;;;;;;;;;;;;;;22.83;50.98;99296.55;1696459;82;20222;-78
2021/05/17 04:15:44;;;;;;;;;;;;;;;22.90;50.74;99287.62;1701996;83;20307;-75
2021/05/17 04:18:12;;;;;;;;;;;;;;;22.93;50.65;99281.60;1694050;83;20255;-77
2021/05/17 04:20:38;;;;;;;;;;;;;;;22.99;50.33;99275.64;1728646;83;20258;-75
2021/05/17 04:23:04;;;;;;;;;;;;;;;22.95;50.47;99256.78;1699662;83;20266;-75
2021/05/17 04:25:30;;;;;;;;;;;;;;;22.95;50.31;99235.75;1701049;83;20281;-77
2021/05/17 04:27:56;;;;;;;;;;;;;;;22.95;50.19;99217.19;1701415;83;20264;-76
2021/05/17 04:30:22;;;;;;;;;;;;;;;22.86;50.31;99199.66;1701037;84;20173;-77
2021/05/17 04:32:48;;;;;;;;;;;;;;;22.82;50.48;99176.70;1706383;83;20243;-77
2021/05/17 04:35:14;;;;;;;;;;;;;;;22.87;50.38;99154.87;1701691;84;20826;-76
2021/05/17 04:37:40;;;;;;;;;;;;;;;22.92;50.31;99149.45;1701706;82;20264;-76
2021/05/17 04:40:07;;;;;;;;;;;;;;;22.90;50.35;99154.37;1700608;82;20343;-77
2021/05/17 04:42:33;;;;;;;;;;;;;;;22.92;50.44;99151.62;1671370;84;20253;-76
2021/05/17 04:45:00;;;;;;;;;;;;;;;22.94;50.40;99151.38;1701318;84;20249;-77
2021/05/17 04:47:26;;;;;;;;;;;;;;;22.97;50.37;99129.78;1698139;82;20257;-77
2021/05/17 04:49:52;;;;;;;;;;;;;;;23.00;50.31;99110.69;1731269;82;20724;-77
2021/05/17 04:52:18;;;;;;;;;;;;;;;23.00;50.15;99097.84;1700571;82;20316;-77
2021/05/17 04:54:44;;;;;;;;;;;;;;;23.02;49.98;99078.45;1695188;84;20560;-77
2021/05/17 04:57:10;;;;;;;;;;;;;;;22.97;49.92;99071.63;1667265;84;20308;-76
2021/05/17 04:59:37;;;;;;;;;;;;;;;22.96;49.97;99072.17;1708903;82;20264;-77
2021/05/17 05:02:06;;;;;;;;;;;;;;;22.96;50.03;99064.53;1713035;82;20212;-76
2021/05/17 05:04:32;;;;;;;;;;;;;;;22.96;50.05;99059.89;1754470;80;20695;-75
2021/05/17 05:06:59;;;;;;;;;;;;;;;22.98;50.17;99054.14;1759346;80;20234;-77
2021/05/17 05:09:26;;;;;;;;;;;;;;;22.98;50.16;99056.87;1762324;80;20260;-78
2021/05/17 05:11:51;;;;;;;;;;;;;;;23.00;50.30;99071.09;1718031;80;20169;-77
2021/05/17 05:14:18;;;;;;;;;;;;;;;23.02;50.25;99086.64;1738019;80;20248;-76
2021/05/17 05:16:44;;;;;;;;;;;;;;;23.04;50.29;99099.49;1751055;81;20248;-76
2021/05/17 05:19:09;;;;;;;;;;;;;;;23.06;50.35;99120.51;1749908;81;20470;-76
2021/05/17 05:21:36;;;;;;;;;;;;;;;23.09;50.46;99129.53;1750725;80;20244;-77
2021/05/17 05:39:10;;;;;;;;;;;;;;;23.34;50.72;99116.40;1726845;80;20253;-76
2021/05/17 05:41:37;;;;;;;;;;;;;;;23.41;50.33;99133.34;1725446;80;20701;-76
2021/05/17 05:44:04;;;;;;;;;;;;;;;23.48;50.45;99144.83;1719717;80;20350;-76
2021/05/17 05:46:30;;;;;;;;;;;;;;;23.54;50.58;99145.09;1724513;80;20292;-77
2021/05/17 05:48:57;;;;;;;;;;;;;;;23.60;50.53;99147.80;1725695;80;20627;-77
2021/05/17 05:51:25;;;;;;;;;;;;;;;23.66;50.48;99148.91;1722668;81;20266;-75
2021/05/17 05:53:51;;;;;;;;;;;;;;;23.32;51.23;99143.73;1731914;80;20246;-76
2021/05/17 05:56:17;;;;;;;;;;;;;;;23.31;51.38;99145.66;1725325;80;20174;-76
2021/05/17 05:58:45;;;;;;;;;;;;;;;23.35;51.40;99136.37;1731214;80;20622;-76
2021/05/17 06:01:11;;;;;;;;;;;;;;;23.38;51.25;99124.87;1723348;81;20142;-76
2021/05/17 06:03:37;;;;;;;;;;;;;;;23.41;51.04;99091.54;1725804;81;20197;-75
2021/05/17 06:06:04;;;;;;;;;;;;;;;23.42;51.14;99078.95;1707768;80;20633;-77
2021/05/17 06:08:33;;;;;;;;;;;;;;;23.40;50.73;99067.50;1744780;80;20223;-77
2021/05/17 06:10:59;;;;;;;;;;;;;;;23.37;50.47;99094.00;1725109;80;20222;-76
2021/05/17 06:13:25;;;;;;;;;;;;;;;23.35;50.17;99080.36;1725840;81;20174;-76
2021/05/17 06:15:52;;;;;;;;;;;;;;;23.31;49.86;99039.09;1728215;80;20177;-76
2021/05/17 06:18:19;;;;;;;;;;;;;;;23.27;50.04;99023.80;1729258;80;20210;-77
2021/05/17 06:20:46;;;;;;;;;;;;;;;23.28;50.34;99019.97;1708946;80;20169;-77
2021/05/17 06:23:15;;;;;;;;;;;;;;;23.32;50.49;99008.50;1712407;80;20262;-77
2021/05/17 06:25:41;;;;;;;;;;;;;;;23.36;50.64;99045.92;1724813;81;20597;-76
2021/05/17 06:28:08;;;;;;;;;;;;;;;23.44;50.73;99072.69;1712403;81;20220;-76
2021/05/17 06:30:46;;;;;;;;;;;;;;;23.55;50.65;99091.23;1721633;81;20167;-76
2021/05/17 06:33:11;;;;;;;;;;;;;;;23.66;50.34;99122.13;1732091;80;21004;-77
2021/05/17 06:35:44;;;;;;;;;;;;;;;23.81;50.54;99165.04;1668154;80;20297;-75
2021/05/17 06:38:06;;;;;;;;;;;;;;;23.96;50.37;99197.27;1725669;81;20178;-77
2021/05/17 06:40:32;;;;;;;;;;;;;;;24.15;50.12;99210.34;1690250;82;20309;-77
2021/05/17 06:42:58;;;;;;;;;;;;;;;24.32;49.71;99226.45;1691795;82;20244;-76
2021/05/17 06:45:26;;;;;;;;;;;;;;;24.50;49.09;99230.79;1691721;82;20189;-76
2021/05/17 06:47:57;;;;;;;;;;;;;;;24.68;48.92;99234.01;1750122;80;20263;-77
2021/05/17 06:50:29;;;;;;;;;;;;;;;24.85;49.16;99252.28;1745213;80;20248;-77
2021/05/17 06:53:07;;;;;;;;;;;;;;;;;;;;;
2021/05/17 06:58:22;;;;;;;;;;;;;;;25.23;48.05;99227.41;1677738;80;20446;-77
2021/05/17 07:00:45;;;;;;;;;;;;;;;25.38;47.58;99210.59;1735681;80;20331;-76
2021/05/17 07:03:15;;;;;;;;;;;;;;;25.51;47.35;99201.70;1719049;80;20559;-76
2021/05/17 07:05:47;;;;;;;;;;;;;;;25.63;47.46;99232.88;1720641;80;20296;-77
2021/05/17 07:13:29;;;;;;;;;;;;;;;25.73;46.41;99273.92;1745996;79;20211;-77
2021/05/17 07:15:56;;;;;;;;;;;;;;;25.69;46.40;99308.52;1747464;80;20294;-77
2021/05/17 07:18:22;;;;;;;;;;;;;;;25.61;46.00;99338.73;1746226;80;20850;-77
2021/05/17 07:23:39;;;;;;;;;;;;;;;25.48;45.84;99371.73;1747999;79;20334;-76
2021/05/17 07:26:04;;;;;;;;;;;;;;;25.34;45.96;99347.94;1750927;79;20674;-77
2021/05/17 07:28:30;;;;;;;;;;;;;;;25.23;46.17;99329.38;1747809;79;20214;-78
2021/05/17 07:31:01;;;;;;;;;;;;;;;25.11;46.04;99332.44;1750813;79;20159;-77
2021/05/17 07:33:24;;;;;;;;;;;;;;;25.02;46.50;99342.30;1751691;79;20891;-78
2021/05/17 07:35:50;;;;;;;;;;;;;;;24.92;46.81;99365.64;1749961;80;20186;-77
2021/05/17 07:38:18;;;;;;;;;;;;;;;24.79;47.02;99372.52;1748624;80;20277;-78
2021/05/17 07:40:44;;;;;;;;;;;;;;;24.75;47.21;99396.92;1752903;79;20256;-78
2021/05/17 07:43:12;;;;;;;;;;;;;;;25.05;46.67;99425.32;1749213;79;20274;-77
2021/05/17 07:45:38;;;;;;;;;;;;;;;25.05;46.87;99448.61;1753927;80;20239;-78
2021/05/17 07:48:05;;;;;;;;;;;;;;;24.98;47.03;99468.61;1750859;80;20252;-78
2021/05/17 07:50:31;;;;;;;;;;;;;;;24.88;47.27;99474.12;1746249;79;20290;-77
2021/05/17 07:52:57;;;;;;;;;;;;;;;24.78;47.43;99475.77;1747370;80;20266;-78
2021/05/17 07:55:24;;;;;;;;;;;;;;;24.73;47.35;99485.38;1750390;80;20471;-78
2021/05/17 07:57:50;;;;;;;;;;;;;;;24.66;47.85;99510.83;1750219;79;20555;-77
2021/05/17 08:00:17;;;;;;;;;;;;;;;24.41;48.29;99527.26;1753409;79;21147;-76
2021/05/17 08:02:43;;;;;;;;;;;;;;;23.83;49.80;99530.09;1750724;80;20370;-76
2021/05/17 08:05:10;;;;;;;;;;;;;;;23.55;50.59;99475.27;1747620;80;20331;-77
2021/05/17 08:07:36;;;;;;;;;;;;;;;23.47;50.81;99376.02;1744476;79;20277;-77
2021/05/17 08:10:05;;;;;;;;;;;;;;;23.45;51.44;99301.69;1698459;80;20459;-77
2021/05/17 08:12:37;;;;;;;;;;;;;;;23.45;51.75;99152.75;1721445;81;20277;-77
2021/05/17 08:15:04;;;;;;;;;;;;;;;23.41;51.86;99006.83;1719566;81;20194;-78
2021/05/17 08:17:30;;;;;;;;;;;;;;;23.36;52.20;99011.77;1715385;81;21027;-76
2021/05/17 08:22:39;;;;;;;;;;;;;;;23.21;52.51;99012.63;1664464;80;20295;-77
2021/05/17 08:25:09;;;;;;;;;;;;;;;23.21;52.46;98989.41;1711924;81;20293;-78
2021/05/17 08:27:42;;;;;;;;;;;;;;;23.20;52.37;99002.77;1729686;80;20272;-77
2021/05/17 08:30:25;;;;;;;;;;;;;;;;;;;;;
2021/05/17 08:32:59;;;;;;;;;;;;;;;23.18;52.20;99050.04;1715954;81;20189;-77
2021/05/17 08:35:40;;;;;;;;;;;;;;;23.15;52.09;99112.59;1704134;81;21039;-78
2021/05/17 08:38:08;;;;;;;;;;;;;;;23.10;51.95;99168.59;1692965;81;20274;-77
2021/05/17 08:40:36;;;;;;;;;;;;;;;23.07;52.10;99184.95;1714950;80;20282;-77
2021/05/17 08:43:07;;;;;;;;;;;;;;;23.08;52.29;99209.84;1717116;81;20273;-77
2021/05/17 08:45:37;;;;;;;;;;;;;;;23.08;52.71;99213.12;1698969;81;20353;-77
2021/05/17 08:48:06;;;;;;;;;;;;;;;23.10;52.77;99213.10;1692172;81;20171;-76
2021/05/17 08:50:33;;;;;;;;;;;;;;;23.12;52.82;99215.04;1716952;80;20576;-76
2021/05/17 08:52:59;;;;;;;;;;;;;;;23.13;52.98;99198.09;1718614;80;20187;-77
2021/05/17 08:55:28;;;;;;;;;;;;;;;23.16;53.20;99190.16;1653055;81;20221;-76
2021/05/17 08:57:54;;;;;;;;;;;;;;;23.21;53.32;99179.78;1713564;81;20239;-77
2021/05/17 09:00:21;;;;;;;;;;;;;;;23.28;53.30;99178.42;1718342;81;20273;-77
2021/05/17 09:02:47;;;;;;;;;;;;;;;23.34;53.47;99188.80;1716184;81;20238;-77
2021/05/17 09:05:27;;;;;;;;;;;;;;;23.36;53.50;99215.87;1717814;80;20552;-76
2021/05/17 09:07:55;;;;;;;;;;;;;;;23.28;53.13;99226.24;1719035;80;20221;-76
2021/05/17 09:10:27;;;;;;;;;;;;;;;23.19;53.27;99231.15;1713610;81;20150;-77
2021/05/17 09:13:07;;;;;;;;;;;;;;;23.05;53.79;99236.31;1717615;81;20176;-76
2021/05/17 09:15:43;;;;;;;;;;;;;;;23.01;54.12;99229.75;1719902;81;20210;-77
2021/05/17 09:18:27;;;;;;;;;;;;;;;23.03;54.27;99227.58;1722475;81;20180;-79
2021/05/17 09:20:54;;;;;;;;;;;;;;;23.04;54.56;99225.13;1722671;81;20213;-75
2021/05/17 09:23:29;;;;;;;;;;;;;;;23.12;54.26;99231.42;1722720;81;20162;-78
2021/05/17 09:25:59;;;;;;;;;;;;;;;23.23;53.97;99224.05;1724068;80;20690;-76
2021/05/17 09:28:27;;;;;;;;;;;;;;;23.34;53.90;99222.96;1722112;81;20194;-76
2021/05/17 09:31:02;;;;;;;;;;;;;;;23.43;53.77;99219.14;1727403;81;20187;-76
2021/05/17 09:33:24;;;;;;;;;;;;;;;23.49;53.67;99212.05;1722374;81;20210;-78
2021/05/17 09:35:50;;;;;;;;;;;;;;;23.58;53.70;99223.27;1706858;81;20347;-77
2021/05/17 09:38:22;;;;;;;;;;;;;;;23.67;53.43;99224.38;1717618;81;20239;-76
2021/05/17 09:40:59;;;;;;;;;;;;;;;23.75;53.19;99225.73;1723781;81;20306;-79
2021/05/17 09:43:25;;;;;;;;;;;;;;;23.83;52.92;99221.63;1722534;80;20256;-78
2021/05/17 09:45:51;;;;;;;;;;;;;;;23.91;52.66;99228.73;1703906;82;20150;-77
2021/05/17 09:48:18;;;;;;;;;;;;;;;23.98;52.20;99229.80;1696824;82;20720;-78
2021/05/17 09:51:08;;;;;;;;;;;;;;;24.02;52.24;99226.78;1719056;81;20576;-78
2021/05/17 09:53:47;;;;;;;;;;;;;;;24.07;52.13;99226.77;1713631;81;20194;-78
2021/05/17 09:56:20;;;;;;;;;;;;;;;24.13;52.14;99225.68;1721176;80;20183;-78
2021/05/17 09:58:47;;;;;;;;;;;;;;;24.21;51.93;99214.17;1700741;81;20242;-76
2021/05/17 10:01:15;;;;;;;;;;;;;;;24.30;51.80;99207.58;1702061;82;20221;-77
2021/05/17 10:03:47;;;;;;;;;;;;;;;24.42;51.91;99200.44;1722544;81;20285;-77
2021/05/17 10:06:18;;;;;;;;;;;;;;;24.49;51.61;99199.60;1721888;80;20176;-78
2021/05/17 10:08:46;;;;;;;;;;;;;;;24.59;51.83;99194.63;1723535;80;20236;-77
2021/05/17 10:11:17;;;;;;;;;;;;;;;24.69;51.35;99199.48;1720042;80;20203;-77
2021/05/17 10:13:42;;;;;;;;;;;;;;;24.76;51.23;99193.72;1720787;81;20218;-76
2021/05/17 10:19:28;;;;;;;;;;;;;;;;;;;;;
2021/05/17 10:22:05;;;;;;;;;;;;;;;24.94;51.06;99195.80;1683981;81;20278;-78
2021/05/17 10:24:35;;;;;;;;;;;;;;;25.01;50.90;99193.55;1679125;81;20220;-78
2021/05/17 10:27:04;;;;;;;;;;;;;;;25.09;50.76;99200.94;1717627;80;20210;-77
2021/05/17 10:29:34;;;;;;;;;;;;;;;25.16;50.60;99195.39;1718601;80;20879;-78
2021/05/17 10:32:01;;;;;;;;;;;;;;;25.23;50.05;99201.37;1696851;82;20671;-78
2021/05/17 10:34:26;;;;;;;;;;;;;;;25.28;49.88;99211.48;1724567;80;20194;-78
2021/05/17 10:36:58;;;;;;;;;;;;;;;25.33;49.77;99212.00;1722631;81;20170;-77
2021/05/17 10:39:39;;;;;;;;;;;;;;;25.35;49.26;99219.41;1720155;81;20174;-77
2021/05/17 10:48:27;;;;;;;;;;;;;;;25.54;49.38;99225.82;1720115;81;20274;-77
2021/05/17 10:51:15;;;;;;;;;;;;;;;25.56;49.46;99224.97;1724003;81;20654;-77
2021/05/17 10:53:44;;;;;;;;;;;;;;;25.62;49.24;99218.36;1724685;81;20363;-77
2021/05/17 10:56:16;;;;;;;;;;;;;;;25.70;48.91;99219.08;1715098;81;20484;-79
2021/05/17 11:01:57;;;;;;;;;;;;;;;25.81;47.91;99218.48;1715993;82;20281;-76
2021/05/17 11:04:26;;;;;;;;;;;;;;;25.88;47.59;99224.44;1725142;80;20179;-78
2021/05/17 11:07:11;;;;;;;;;;;;;;;25.92;47.76;99221.94;1720978;81;20177;-77
2021/05/17 11:09:49;;;;;;;;;;;;;;;25.90;47.68;99218.13;1696669;81;20182;-78
2021/05/17 11:12:28;;;;;;;;;;;;;;;25.91;48.10;99220.31;1706152;82;20133;-77
2021/05/17 11:15:06;;;;;;;;;;;;;;;25.91;48.40;99230.73;1722361;81;20204;-77
2021/05/17 11:17:53;;;;;;;;;;;;;;;25.90;47.79;99228.28;1720100;81;20556;-78
2021/05/17 11:23:26;;;;;;;;;;;;;;;25.74;47.75;99233.86;1721782;81;20232;-78
2021/05/17 11:28:42;;;;;;;;;;;;;;;25.58;47.75;99241.97;1707430;81;20297;-78
2021/05/17 11:31:45;;;;;;;;;;;;;;;25.53;47.99;99240.09;1717314;81;20326;-78
2021/05/17 11:34:10;;;;;;;;;;;;;;;25.50;48.23;99254.91;1721076;81;20251;-77
2021/05/17 11:36:50;;;;;;;;;;;;;;;25.45;48.19;99250.29;1721095;81;20225;-77
2021/05/17 11:39:30;;;;;;;;;;;;;;;25.39;48.51;99251.97;1721690;81;20232;-76
2021/05/17 11:42:03;;;;;;;;;;;;;;;25.33;48.58;99254.48;1703128;82;20235;-78
2021/05/17 11:47:24;;;;;;;;;;;;;;;25.17;48.46;99255.16;1719383;81;20615;-78
2021/05/17 11:49:50;;;;;;;;;;;;;;;25.10;48.86;99256.00;1717871;81;20154;-77
2021/05/17 11:52:22;;;;;;;;;;;;;;;25.04;49.11;99254.64;1718383;81;20246;-77
2021/05/17 11:54:50;;;;;;;;;;;;;;;25.02;49.14;99254.64;1727015;81;20297;-75
2021/05/17 11:57:18;;;;;;;;;;;;;;;24.97;48.97;99249.19;1718187;81;20230;-77
2021/05/17 11:59:44;;;;;;;;;;;;;;;24.91;49.03;99244.85;1721028;81;20235;-77
2021/05/17 12:02:11;;;;;;;;;;;;;;;24.84;49.35;99245.14;1721971;81;20266;-78
2021/05/17 12:04:38;;;;;;;;;;;;;;;24.82;49.63;99247.91;1719977;82;20697;-78
2021/05/17 12:07:17;;;;;;;;;;;;;;;24.85;49.73;99246.80;1721228;80;20150;-79
2021/05/17 12:09:49;;;;;;;;;;;;;;;24.88;50.01;99245.41;1722025;80;20509;-77
2021/05/17 12:12:22;;;;;;;;;;;;;;;24.93;50.21;99244.00;1716269;81;20870;-77
2021/05/17 12:14:54;;;;;;;;;;;;;;;24.94;49.91;99252.52;1721666;81;20873;-76
2021/05/17 12:17:36;;;;;;;;;;;;;;;24.94;49.76;99247.85;1721451;81;20326;-77
2021/05/17 12:20:01;;;;;;;;;;;;;;;24.92;49.62;99250.59;1721477;80;20186;-76
2021/05/17 12:22:40;;;;;;;;;;;;;;;24.91;49.76;99248.41;1727591;81;20163;-76
2021/05/17 12:25:13;;;;;;;;;;;;;;;24.88;49.49;99248.14;1723954;81;20623;-77
2021/05/17 12:27:39;;;;;;;;;;;;;;;24.83;49.61;99242.70;1722623;80;20170;-78
2021/05/17 12:30:16;;;;;;;;;;;;;;;24.79;49.58;99245.98;1724266;81;20190;-76
2021/05/17 12:32:44;;;;;;;;;;;;;;;24.77;49.78;99242.72;1704066;81;20147;-76
2021/05/17 12:35:17;;;;;;;;;;;;;;;24.78;49.98;99251.20;1721021;81;20238;-76
2021/05/17 12:37:48;;;;;;;;;;;;;;;24.76;49.99;99254.78;1694487;83;20221;-76
2021/05/17 12:40:27;;;;;;;;;;;;;;;24.78;50.07;99254.49;1727096;81;20259;-77
2021/05/17 12:43:21;;;;;;;;;;;;;;;24.80;49.85;99258.60;1726670;81;20202;-76
2021/05/17 12:45:51;;;;;;;;;;;;;;;24.80;49.69;99262.71;1664773;83;20442;-78
2021/05/17 12:48:39;;;;;;;;;;;;;;;24.79;49.63;99258.31;1708746;81;20386;-77
2021/05/17 12:51:13;;;;;;;;;;;;;;;24.77;49.81;99259.16;1725561;81;20648;-77
2021/05/17 12:53:39;;;;;;;;;;;;;;;24.78;49.88;99257.23;1703597;82;20385;-78
2021/05/17 12:56:05;;;;;;;;;;;;;;;24.75;49.97;99254.52;1724210;81;20265;-77
2021/05/17 12:58:34;;;;;;;;;;;;;;;24.73;49.95;99247.13;1720022;82;20427;-78
2021/05/17 13:01:03;;;;;;;;;;;;;;;24.74;50.13;99254.78;1720197;81;20265;-77
2021/05/17 13:03:31;;;;;;;;;;;;;;;24.74;50.31;99251.49;1716697;81;20645;-77
2021/05/17 13:06:05;;;;;;;;;;;;;;;24.78;50.42;99258.60;1719361;82;20587;-78
2021/05/17 13:08:44;;;;;;;;;;;;;;;24.81;50.15;99256.68;1715729;81;20273;-78
2021/05/17 13:11:22;;;;;;;;;;;;;;;24.84;49.92;99264.31;1725413;81;20230;-78
2021/05/17 13:14:06;;;;;;;;;;;;;;;24.85;49.70;99262.42;1699973;82;20264;-79
2021/05/17 13:16:41;;;;;;;;;;;;;;;24.85;49.49;99262.42;1721299;80;20548;-80
2021/05/17 13:33:06;;;;;;;;;;;;;;;24.83;48.96;99276.37;1727021;81;20199;-78
2021/05/17 13:35:33;;;;;;;;;;;;;;;24.83;48.91;99281.04;1723897;82;20199;-78
2021/05/17 13:37:59;;;;;;;;;;;;;;;24.85;48.78;99289.81;1723073;81;20325;-78
2021/05/17 13:40:25;;;;;;;;;;;;;;;24.84;48.54;99282.67;1720917;81;20199;-78
2021/05/17 13:42:53;;;;;;;;;;;;;;;24.83;48.57;99292.81;1708309;81;20266;-77
2021/05/17 13:45:19;;;;;;;;;;;;;;;24.83;48.65;99291.99;1728423;81;20714;-78
2021/05/17 13:47:45;;;;;;;;;;;;;;;24.79;49.24;99292.55;1703545;81;20281;-78
2021/05/17 13:50:18;;;;;;;;;;;;;;;24.76;49.33;99283.54;1696857;82;20273;-80
2021/05/17 13:52:42;;;;;;;;;;;;;;;24.75;49.51;99286.02;1682546;83;20258;-78
2021/05/17 13:55:09;;;;;;;;;;;;;;;24.74;49.66;99295.30;1659354;84;20317;-79
2021/05/17 13:57:36;;;;;;;;;;;;;;;24.74;49.85;99295.30;1722470;82;20274;-78
2021/05/17 14:00:05;;;;;;;;;;;;;;;24.76;50.03;99293.67;1678192;83;20853;-77
2021/05/17 14:02:33;;;;;;;;;;;;;;;24.73;50.04;99286.83;1677180;83;20258;-79
2021/05/17 14:05:03;;;;;;;;;;;;;;;24.74;50.03;99294.48;1720631;81;20627;-77
2021/05/17 14:07:29;;;;;;;;;;;;;;;24.72;49.99;99297.52;1719506;81;20247;-77
2021/05/17 14:09:55;;;;;;;;;;;;;;;24.69;49.78;99298.06;1719677;81;20301;-78